Time;durP1;ratioP1;P1;durP2;ratioP2;P2;SDS_P1;SDS_P2;PMS_P1;PMS_P2;Temp;Humidity;BMP_temperature;BMP_pressure;BME280_temperature;BME280_humidity;BME280_pressure;Samples;Min_cycle;Max_cycle;Signal;HPM_P1;HPM_P2
2022/04/06 00:04:35;;;;;;;;;;;10.60;99.90;;;;;;10390769;28;85261;-56
2022/04/06 00:09:39;;;;;;;;;;;10.60;99.90;;;;;;10408494;28;84874;-57
2022/04/06 00:14:39;;;;;;;;;;;10.60;99.90;;;;;;10409010;28;85390;-56
2022/04/06 00:19:40;;;;;;;;;;;10.60;99.90;;;;;;10408099;28;84182;-53
2022/04/06 00:24:40;;;;;;;;;;;10.60;99.90;;;;;;10409816;28;84110;-55
2022/04/06 00:29:41;;;;;;;;;;;10.60;99.90;;;;;;10408393;28;84127;-58
2022/04/06 00:40:01;;;;;;;;;;;10.60;99.90;;;;;;10409130;28;84225;-56
2022/04/06 00:45:01;;;;;;;;;;;10.50;99.90;;;;;;10409176;28;86634;-53
2022/04/06 00:50:02;;;;;;;;;;;10.60;99.90;;;;;;10407953;28;84754;-57
2022/04/06 00:55:03;;;;;;;;;;;10.60;99.90;;;;;;10410185;28;85049;-56
2022/04/06 01:00:05;;;;;;;;;;;10.50;99.90;;;;;;10409401;28;85297;-54
2022/04/06 01:05:06;;;;;;;;;;;10.50;99.90;;;;;;10405530;28;85127;-55
2022/04/06 01:10:07;;;;;;;;;;;10.60;99.90;;;;;;10408494;28;84009;-56
2022/04/06 01:15:08;;;;;;;;;;;10.50;99.90;;;;;;10389840;28;84920;-56
2022/04/06 01:20:10;;;;;;;;;;;10.30;99.90;;;;;;10415047;22;84891;-50
2022/04/06 01:25:11;;;;;;;;;;;10.30;99.90;;;;;;10408914;28;85109;-50
2022/04/06 01:30:12;;;;;;;;;;;10.30;99.90;;;;;;10415048;28;84212;-53
2022/04/06 01:35:13;;;;;;;;;;;10.20;99.90;;;;;;10415794;28;84860;-51
2022/04/06 01:40:13;;;;;;;;;;;10.40;99.90;;;;;;10415302;28;84126;-48
2022/04/06 01:45:14;;;;;;;;;;;10.40;99.90;;;;;;10415344;28;84207;-49
2022/04/06 01:55:34;;;;;;;;;;;10.30;99.90;;;;;;10415230;28;84893;-49
2022/04/06 02:00:34;;;;;;;;;;;10.20;99.90;;;;;;10400561;28;84876;-48
2022/04/06 02:05:35;;;;;;;;;;;10.20;99.90;;;;;;10380845;28;84154;-48
2022/04/06 02:10:36;;;;;;;;;;;10.20;99.90;;;;;;10376772;28;84595;-53
2022/04/06 02:15:37;;;;;;;;;;;10.10;99.90;;;;;;10379155;28;84033;-48
2022/04/06 02:20:38;;;;;;;;;;;10.10;99.90;;;;;;10371898;28;85182;-47
2022/04/06 02:25:38;;;;;;;;;;;10.10;99.90;;;;;;10353286;28;86569;-48
2022/04/06 02:30:39;;;;;;;;;;;10.10;99.90;;;;;;10371481;28;89836;-52
2022/04/06 02:35:39;;;;;;;;;;;10.10;99.90;;;;;;10368337;28;89560;-51
2022/04/06 02:40:40;;;;;;;;;;;10.10;99.90;;;;;;10370920;28;87007;-49
2022/04/06 02:45:40;;;;;;;;;;;10.10;99.90;;;;;;10370614;28;84998;-48
2022/04/06 02:50:41;;;;;;;;;;;10.00;99.90;;;;;;10353634;28;85976;-50
2022/04/06 02:55:41;;;;;;;;;;;10.10;99.90;;;;;;10370512;28;84926;-48
2022/04/06 03:00:42;;;;;;;;;;;10.10;99.90;;;;;;10370431;28;84963;-51
2022/04/06 03:05:42;;;;;;;;;;;10.20;99.90;;;;;;10365701;28;85509;-49
2022/04/06 03:10:43;;;;;;;;;;;10.10;99.90;;;;;;10387528;28;84907;-51
2022/04/06 03:15:44;;;;;;;;;;;10.10;99.90;;;;;;10370286;28;84173;-48
2022/04/06 03:20:44;;;;;;;;;;;10.10;99.90;;;;;;10364479;28;84203;-49
2022/04/06 03:25:45;;;;;;;;;;;10.10;99.90;;;;;;10366163;28;84177;-51
2022/04/06 03:30:45;;;;;;;;;;;10.10;99.90;;;;;;10370383;28;84134;-49
2022/04/06 03:35:46;;;;;;;;;;;10.10;99.90;;;;;;10367697;28;91296;-53
2022/04/06 03:40:46;;;;;;;;;;;10.10;99.90;;;;;;10374289;28;84923;-49
2022/04/06 03:45:47;;;;;;;;;;;10.10;99.90;;;;;;10369159;28;84931;-52
2022/04/06 03:50:50;;;;;;;;;;;10.10;99.90;;;;;;10368989;28;85563;-48
2022/04/06 03:55:50;;;;;;;;;;;10.10;99.90;;;;;;10368535;28;84179;-51
2022/04/06 04:00:51;;;;;;;;;;;10.10;99.90;;;;;;10369578;28;84754;-49
2022/04/06 04:05:51;;;;;;;;;;;10.10;99.90;;;;;;10368617;28;84143;-50
2022/04/06 04:10:52;;;;;;;;;;;10.10;99.90;;;;;;10368780;28;84169;-48
2022/04/06 04:15:53;;;;;;;;;;;10.10;99.90;;;;;;10369139;28;84877;-49
2022/04/06 04:26:12;;;;;;;;;;;10.10;99.90;;;;;;10385671;28;85595;-51
2022/04/06 04:31:13;;;;;;;;;;;10.00;99.90;;;;;;10410841;28;84956;-50
2022/04/06 04:36:14;;;;;;;;;;;10.00;99.90;;;;;;10409433;28;84918;-51
2022/04/06 04:41:14;;;;;;;;;;;10.00;99.90;;;;;;10411086;28;84105;-51
2022/04/06 04:46:15;;;;;;;;;;;10.00;99.90;;;;;;10402016;28;84218;-52
2022/04/06 04:51:16;;;;;;;;;;;10.00;99.90;;;;;;10402153;28;85437;-51
2022/04/06 04:56:16;;;;;;;;;;;10.00;99.90;;;;;;10399667;28;84239;-51
2022/04/06 05:01:17;;;;;;;;;;;9.90;99.90;;;;;;10404133;28;84797;-52
2022/04/06 05:06:18;;;;;;;;;;;9.90;94.40;;;;;;10401258;28;84831;-50
2022/04/06 05:11:19;;;;;;;;;;;9.90;98.10;;;;;;10373476;28;83918;-50
2022/04/06 05:16:19;;;;;;;;;;;9.90;87.90;;;;;;10372173;28;84263;-48
2022/04/06 05:21:20;;;;;;;;;;;9.90;70.10;;;;;;10355225;28;86558;-54
2022/04/06 05:26:20;;;;;;;;;;;9.90;41.60;;;;;;10372853;28;84909;-50
2022/04/06 05:31:21;;;;;;;;;;;9.80;22.90;;;;;;10373319;28;84445;-51
2022/04/06 05:36:24;;;;;;;;;;;9.90;22.40;;;;;;10373264;28;84085;-48
2022/04/06 05:41:25;;;;;;;;;;;9.90;12.50;;;;;;10389711;28;84868;-55
2022/04/06 05:46:26;;;;;;;;;;;9.90;1.00;;;;;;10415037;28;84701;-51
2022/04/06 05:51:26;;;;;;;;;;;10.00;1.00;;;;;;10415840;28;84899;-46
2022/04/06 05:56:26;;;;;;;;;;;9.90;1.00;;;;;;10395693;28;85014;-50
2022/04/06 06:01:27;;;;;;;;;;;9.90;1.00;;;;;;10381777;28;88922;-49
2022/04/06 06:06:28;;;;;;;;;;;10.00;1.00;;;;;;10374434;28;84168;-50
2022/04/06 06:11:28;;;;;;;;;;;10.00;1.00;;;;;;10391736;28;84263;-53
2022/04/06 06:16:29;;;;;;;;;;;10.00;1.00;;;;;;10390980;28;87279;-54
2022/04/06 06:21:32;;;;;;;;;;;10.00;1.00;;;;;;10357776;28;84893;-51
2022/04/06 06:26:33;;;;;;;;;;;10.00;1.00;;;;;;10370476;28;84172;-48
2022/04/06 06:31:33;;;;;;;;;;;10.00;1.00;;;;;;10370016;28;84171;-49
2022/04/06 06:36:34;;;;;;;;;;;10.00;1.00;;;;;;10368552;28;84324;-53
2022/04/06 06:41:35;;;;;;;;;;;10.00;1.00;;;;;;10381842;28;84782;-56
2022/04/06 06:46:36;;;;;;;;;;;10.00;1.00;;;;;;10371012;28;84996;-55
2022/04/06 06:51:39;;;;;;;;;;;10.00;1.00;;;;;;10353106;28;84778;-56
2022/04/06 06:56:39;;;;;;;;;;;10.20;1.00;;;;;;10370926;28;84964;-53
2022/04/06 07:01:40;;;;;;;;;;;10.10;1.00;;;;;;10371710;28;84053;-53
2022/04/06 07:06:40;;;;;;;;;;;10.20;1.00;;;;;;10370120;28;84067;-56
2022/04/06 07:11:41;;;;;;;;;;;10.20;1.00;;;;;;10368965;28;84178;-55
2022/04/06 07:16:41;;;;;;;;;;;10.20;1.00;;;;;;10387266;22;84930;-55
2022/04/06 07:21:42;;;;;;;;;;;10.20;1.00;;;;;;10329812;28;84888;-51
2022/04/06 07:26:43;;;;;;;;;;;10.20;1.00;;;;;;10328658;28;84099;-54
2022/04/06 07:31:43;;;;;;;;;;;10.20;1.00;;;;;;10329103;28;84909;-52
2022/04/06 07:36:44;;;;;;;;;;;10.20;1.00;;;;;;10327820;28;84876;-55
2022/04/06 07:41:44;;;;;;;;;;;10.20;1.00;;;;;;10329560;28;85008;-53
2022/04/06 07:46:45;;;;;;;;;;;10.20;1.00;;;;;;10311006;28;88168;-45
2022/04/06 07:51:47;;;;;;;;;;;10.20;1.00;;;;;;10310099;28;86037;-55
2022/04/06 07:56:47;;;;;;;;;;;10.20;1.00;;;;;;10308471;28;87616;-53
2022/04/06 08:01:48;;;;;;;;;;;10.30;1.00;;;;;;10326567;28;85069;-52
2022/04/06 08:06:48;;;;;;;;;;;10.20;1.00;;;;;;10326272;28;84273;-54
2022/04/06 08:11:50;;;;;;;;;;;10.40;1.00;;;;;;10327524;28;84466;-54
2022/04/06 08:16:50;;;;;;;;;;;10.50;1.00;;;;;;10326450;28;84211;-55
2022/04/06 08:21:51;;;;;;;;;;;10.50;1.00;;;;;;10309448;28;94381;-52
2022/04/06 08:26:52;;;;;;;;;;;10.60;1.00;;;;;;10309724;28;84950;-57
2022/04/06 08:31:52;;;;;;;;;;;10.70;1.00;;;;;;10326920;28;84861;-48
2022/04/06 08:36:53;;;;;;;;;;;10.70;1.00;;;;;;10307641;28;85198;-54
2022/04/06 08:41:55;;;;;;;;;;;10.80;1.00;;;;;;10327442;28;86812;-48
2022/04/06 08:46:57;;;;;;;;;;;10.80;1.00;;;;;;10326314;28;84939;-45
2022/04/06 08:51:59;;;;;;;;;;;10.70;1.00;;;;;;10308937;28;87160;-46
2022/04/06 08:56:59;;;;;;;;;;;10.70;1.00;;;;;;10308308;28;85318;-45
2022/04/06 09:02:00;;;;;;;;;;;10.70;1.00;;;;;;10327247;28;84331;-46
2022/04/06 09:07:08;;;;;;;;;;;10.70;1.00;;;;;;10308348;28;84253;-46
2022/04/06 09:12:09;;;;;;;;;;;10.90;1.00;;;;;;10326780;28;84296;-45
2022/04/06 09:17:09;;;;;;;;;;;11.00;1.00;;;;;;10325818;28;84860;-45
2022/04/06 09:22:10;;;;;;;;;;;11.00;1.00;;;;;;10327196;28;84971;-48
2022/04/06 09:27:10;;;;;;;;;;;10.90;1.00;;;;;;10324904;28;84893;-47
2022/04/06 09:32:11;;;;;;;;;;;10.80;1.00;;;;;;10325278;28;84853;-48
2022/04/06 09:37:25;;;;;;;;;;;10.70;1.00;;;;;;10320573;28;84536;-45
2022/04/06 09:42:27;;;;;;;;;;;10.60;1.00;;;;;;10323309;28;84104;-44
2022/04/06 09:47:39;;;;;;;;;;;10.70;1.00;;;;;;10326980;28;84083;-45
2022/04/06 09:52:43;;;;;;;;;;;10.70;1.00;;;;;;10331782;28;84128;-45
2022/04/06 09:58:05;;;;;;;;;;;10.80;1.00;;;;;;10313468;28;84135;-44
2022/04/06 10:03:07;;;;;;;;;;;10.80;1.00;;;;;;10335722;28;84952;-44
2022/04/06 10:08:09;;;;;;;;;;;10.80;1.00;;;;;;10331036;28;84438;-44
2022/04/06 10:13:10;;;;;;;;;;;10.80;1.00;;;;;;10330966;28;84073;-48
2022/04/06 10:18:10;;;;;;;;;;;10.80;1.00;;;;;;10329184;28;84972;-46
2022/04/06 10:23:14;;;;;;;;;;;10.70;1.00;;;;;;10331456;28;84358;-44
2022/04/06 10:28:16;;;;;;;;;;;10.50;1.00;;;;;;10321691;28;84888;-44
2022/04/06 10:33:20;;;;;;;;;;;10.40;1.00;;;;;;10328588;28;84975;-46
2022/04/06 10:38:22;;;;;;;;;;;10.40;1.00;;;;;;10329014;28;84910;-46
2022/04/06 10:43:36;;;;;;;;;;;10.50;1.00;;;;;;10329662;28;84809;-45
2022/04/06 10:49:00;;;;;;;;;;;10.60;1.00;;;;;;10326183;28;84735;-47
2022/04/06 10:54:12;;;;;;;;;;;10.40;1.00;;;;;;10311437;28;85170;-45
2022/04/06 10:59:16;;;;;;;;;;;10.50;1.00;;;;;;10329047;28;85320;-46
2022/04/06 11:04:20;;;;;;;;;;;10.70;1.00;;;;;;10328134;28;84100;-45
2022/04/06 11:14:49;;;;;;;;;;;10.80;1.00;;;;;;10327621;28;84106;-48
2022/04/06 11:19:50;;;;;;;;;;;10.70;1.00;;;;;;10323580;28;84762;-46
2022/04/06 11:24:51;;;;;;;;;;;10.80;1.00;;;;;;10327405;28;85121;-45
2022/04/06 11:30:02;;;;;;;;;;;10.90;1.00;;;;;;10325250;28;84209;-45
2022/04/06 11:35:04;;;;;;;;;;;11.00;1.00;;;;;;10283591;28;86092;-45
2022/04/06 11:40:05;;;;;;;;;;;10.80;1.00;;;;;;10307522;28;86032;-46
2022/04/06 11:45:07;;;;;;;;;;;11.00;1.00;;;;;;10325828;28;84270;-45
2022/04/06 11:50:10;;;;;;;;;;;11.10;1.00;;;;;;10316950;28;84942;-45
2022/04/06 11:55:11;;;;;;;;;;;11.10;1.00;;;;;;10333131;28;84193;-47
2022/04/06 12:00:13;;;;;;;;;;;11.10;1.00;;;;;;10324865;28;84245;-45
2022/04/06 12:05:13;;;;;;;;;;;11.10;1.00;;;;;;10326840;28;84262;-45
2022/04/06 12:10:14;;;;;;;;;;;11.00;1.00;;;;;;10322381;28;85005;-45
2022/04/06 12:15:15;;;;;;;;;;;10.90;1.00;;;;;;10320093;28;84349;-46
2022/04/06 12:20:23;;;;;;;;;;;10.80;1.00;;;;;;10320379;28;84417;-48
2022/04/06 12:25:27;;;;;;;;;;;10.80;1.00;;;;;;10332240;28;84946;-46
2022/04/06 12:30:28;;;;;;;;;;;10.70;2.10;;;;;;10329449;28;84355;-45
2022/04/06 12:35:28;;;;;;;;;;;10.70;13.60;;;;;;10306250;28;84426;-46
2022/04/06 12:40:29;;;;;;;;;;;10.70;13.60;;;;;;10342929;28;84905;-46
2022/04/06 12:45:50;;;;;;;;;;;10.70;22.80;;;;;;10300894;28;92232;-49
2022/04/06 12:50:51;;;;;;;;;;;10.60;1.00;;;;;;10278224;28;85392;-46
2022/04/06 12:56:10;;;;;;;;;;;10.50;29.50;;;;;;10331257;28;84242;-44
2022/04/06 13:01:11;;;;;;;;;;;10.60;14.40;;;;;;10322433;28;84967;-49
2022/04/06 13:06:12;;;;;;;;;;;10.60;1.00;;;;;;10316415;28;84147;-45
2022/04/06 13:11:12;;;;;;;;;;;10.50;1.00;;;;;;10311702;28;84935;-47
2022/04/06 13:16:13;;;;;;;;;;;10.60;1.00;;;;;;10304055;28;84629;-45
2022/04/06 13:21:14;;;;;;;;;;;10.60;17.30;;;;;;10397632;22;84969;-50
2022/04/06 13:26:15;;;;;;;;;;;10.60;24.60;;;;;;10383998;28;84324;-49
2022/04/06 13:31:16;;;;;;;;;;;10.60;1.00;;;;;;10392993;28;84979;-48
2022/04/06 13:36:17;;;;;;;;;;;10.50;1.00;;;;;;10401844;28;84182;-49
2022/04/06 13:41:17;;;;;;;;;;;10.50;1.00;;;;;;10414001;28;84179;-49
2022/04/06 13:46:18;;;;;;;;;;;10.60;1.00;;;;;;10406071;28;84970;-48
2022/04/06 13:51:19;;;;;;;;;;;10.60;1.00;;;;;;10398341;28;84750;-48
2022/04/06 13:56:19;;;;;;;;;;;10.60;1.00;;;;;;10403779;28;84429;-48
2022/04/06 14:01:20;;;;;;;;;;;10.60;1.00;;;;;;10397504;28;85505;-49
2022/04/06 14:06:20;;;;;;;;;;;10.80;1.00;;;;;;10396847;28;84958;-46
2022/04/06 14:11:21;;;;;;;;;;;10.70;1.00;;;;;;10423010;28;84755;-48
2022/04/06 14:16:22;;;;;;;;;;;10.70;1.00;;;;;;10395234;28;86910;-50
2022/04/06 14:21:23;;;;;;;;;;;10.80;1.00;;;;;;10413640;28;84911;-47
2022/04/06 14:26:23;;;;;;;;;;;10.70;1.00;;;;;;10413489;28;84169;-47
2022/04/06 14:31:25;;;;;;;;;;;10.80;1.00;;;;;;10418085;28;84952;-48
2022/04/06 14:36:25;;;;;;;;;;;10.80;1.00;;;;;;10411822;28;84039;-53
2022/04/06 14:41:26;;;;;;;;;;;10.90;1.00;;;;;;10414517;28;84405;-47
2022/04/06 14:46:27;;;;;;;;;;;11.00;1.00;;;;;;10406486;28;86783;-47
2022/04/06 14:51:27;;;;;;;;;;;10.90;1.00;;;;;;10413505;28;85717;-47
2022/04/06 14:56:28;;;;;;;;;;;10.90;1.00;;;;;;10409181;28;87156;-58
2022/04/06 15:01:28;;;;;;;;;;;11.00;1.00;;;;;;10423382;28;84118;-54
2022/04/06 15:06:30;;;;;;;;;;;10.90;1.00;;;;;;10421859;28;84009;-50
2022/04/06 15:11:31;;;;;;;;;;;10.90;1.00;;;;;;10407647;28;84158;-50
2022/04/06 15:16:32;;;;;;;;;;;11.00;1.00;;;;;;10397545;28;84892;-48
2022/04/06 15:21:35;;;;;;;;;;;10.90;1.00;;;;;;10403011;28;84318;-48
2022/04/06 15:26:36;;;;;;;;;;;11.00;1.00;;;;;;10451520;28;84307;-47
2022/04/06 15:31:36;;;;;;;;;;;11.10;1.00;;;;;;10451034;28;85378;-51
2022/04/06 15:41:57;;;;;;;;;;;11.30;1.00;;;;;;10410428;28;84749;-47
2022/04/06 15:46:59;;;;;;;;;;;11.30;1.00;;;;;;10394844;28;84909;-47
2022/04/06 15:52:00;;;;;;;;;;;11.20;1.00;;;;;;10408797;28;85440;-49
2022/04/06 15:57:00;;;;;;;;;;;11.40;1.00;;;;;;10402469;28;85133;-47
2022/04/06 16:02:01;;;;;;;;;;;11.40;1.00;;;;;;10404231;28;84088;-50
2022/04/06 16:07:01;;;;;;;;;;;11.40;1.00;;;;;;10405634;28;84145;-47
2022/04/06 16:12:04;;;;;;;;;;;11.40;1.00;;;;;;10407257;28;84376;-46
2022/04/06 16:17:05;;;;;;;;;;;11.40;1.00;;;;;;10407338;28;84329;-46
2022/04/06 16:22:05;;;;;;;;;;;11.40;1.00;;;;;;10404768;28;84019;-48
2022/04/06 16:27:06;;;;;;;;;;;11.40;1.00;;;;;;10391395;28;86064;-47
2022/04/06 16:32:07;;;;;;;;;;;11.40;1.00;;;;;;10404804;28;84089;-47
2022/04/06 16:37:08;;;;;;;;;;;11.30;1.00;;;;;;10388007;28;86366;-49
2022/04/06 16:42:09;;;;;;;;;;;11.30;1.00;;;;;;10392488;28;85253;-47
2022/04/06 16:47:12;;;;;;;;;;;11.30;1.00;;;;;;10410297;28;84996;-47
2022/04/06 16:57:32;;;;;;;;;;;11.20;1.00;;;;;;10386261;28;85481;-55
2022/04/06 17:02:32;;;;;;;;;;;11.20;1.00;;;;;;10415665;28;84159;-51
2022/04/06 17:07:33;;;;;;;;;;;11.10;1.00;;;;;;10430915;28;85120;-50
2022/04/06 17:12:33;;;;;;;;;;;10.90;1.00;;;;;;10446915;28;88122;-54
2022/04/06 17:17:38;;;;;;;;;;;10.70;1.00;;;;;;10377395;28;87130;-52
2022/04/06 17:22:39;;;;;;;;;;;10.70;1.00;;;;;;10427746;28;84923;-55
2022/04/06 17:27:40;;;;;;;;;;;10.70;1.00;;;;;;10413511;28;84189;-56
2022/04/06 17:32:40;;;;;;;;;;;10.70;1.00;;;;;;10423904;28;84355;-57
2022/04/06 17:37:41;;;;;;;;;;;10.80;1.00;;;;;;10430293;28;85087;-57
2022/04/06 17:42:42;;;;;;;;;;;10.80;1.00;;;;;;10443235;28;84283;-55
2022/04/06 17:47:43;;;;;;;;;;;10.80;1.00;;;;;;10412963;28;84912;-51
2022/04/06 17:52:43;;;;;;;;;;;10.80;1.00;;;;;;10412557;28;84515;-54
2022/04/06 17:57:44;;;;;;;;;;;10.60;1.00;;;;;;10407879;28;84885;-52
2022/04/06 18:02:45;;;;;;;;;;;10.40;90.80;;;;;;10404044;28;86801;-49
2022/04/06 18:07:45;;;;;;;;;;;10.30;99.90;;;;;;10407889;28;85161;-51
2022/04/06 18:18:05;;;;;;;;;;;10.10;99.90;;;;;;10413003;28;84245;-53
2022/04/06 18:23:06;;;;;;;;;;;10.00;99.90;;;;;;10420819;28;84368;-51
2022/04/06 18:28:07;;;;;;;;;;;9.80;99.90;;;;;;10394272;28;86899;-51
2022/04/06 18:33:07;;;;;;;;;;;9.80;99.90;;;;;;10416751;28;84874;-57
2022/04/06 18:38:09;;;;;;;;;;;9.80;99.90;;;;;;10448115;28;86732;-56
2022/04/06 18:43:09;;;;;;;;;;;9.80;99.90;;;;;;10419199;28;84018;-52
2022/04/06 18:48:10;;;;;;;;;;;9.70;99.90;;;;;;10401227;28;84493;-49
2022/04/06 18:53:10;;;;;;;;;;;9.70;99.90;;;;;;10400670;28;85095;-49
2022/04/06 18:58:13;;;;;;;;;;;9.70;99.90;;;;;;10389719;28;84268;-50
2022/04/06 19:03:13;;;;;;;;;;;9.70;99.90;;;;;;10398148;28;84380;-49
2022/04/06 19:08:14;;;;;;;;;;;9.70;99.90;;;;;;10413977;28;84860;-53
2022/04/06 19:13:15;;;;;;;;;;;9.70;99.90;;;;;;10411920;28;83996;-53
2022/04/06 19:18:17;;;;;;;;;;;9.80;99.90;;;;;;10403480;22;84473;-49
2022/04/06 19:23:17;;;;;;;;;;;9.90;99.90;;;;;;10352046;28;86070;-46
2022/04/06 19:28:18;;;;;;;;;;;9.90;99.90;;;;;;10354323;28;87566;-49
2022/04/06 19:33:19;;;;;;;;;;;9.80;99.90;;;;;;10350119;28;84804;-50
2022/04/06 19:38:20;;;;;;;;;;;9.70;99.90;;;;;;10366291;28;85561;-51
2022/04/06 19:43:20;;;;;;;;;;;9.60;99.90;;;;;;10338159;28;84975;-50
2022/04/06 19:48:22;;;;;;;;;;;9.60;99.90;;;;;;10361805;28;84943;-56
2022/04/06 19:53:23;;;;;;;;;;;9.60;99.90;;;;;;10368161;28;84902;-49
2022/04/06 19:58:23;;;;;;;;;;;9.50;99.90;;;;;;10345156;28;85054;-54
2022/04/06 20:03:25;;;;;;;;;;;9.40;99.90;;;;;;10366169;28;84308;-51
2022/04/06 20:08:25;;;;;;;;;;;9.40;99.90;;;;;;10342675;28;85300;-46
2022/04/06 20:13:26;;;;;;;;;;;9.40;99.90;;;;;;10362649;28;84992;-50
2022/04/06 20:18:27;;;;;;;;;;;9.40;99.90;;;;;;10364705;28;84457;-51
2022/04/06 20:23:30;;;;;;;;;;;9.40;99.90;;;;;;10360006;28;84226;-52
2022/04/06 20:28:31;;;;;;;;;;;9.40;99.90;;;;;;10359572;28;86175;-50
2022/04/06 20:33:32;;;;;;;;;;;9.40;99.90;;;;;;10361525;28;85354;-55
2022/04/06 20:38:36;;;;;;;;;;;9.40;99.90;;;;;;10344332;28;85919;-50
2022/04/06 20:43:37;;;;;;;;;;;9.50;99.90;;;;;;10362539;28;84273;-50
2022/04/06 20:48:37;;;;;;;;;;;9.50;99.90;;;;;;10357040;28;84861;-53
2022/04/06 20:53:39;;;;;;;;;;;9.60;99.90;;;;;;10326003;28;84832;-49
2022/04/06 20:58:40;;;;;;;;;;;9.70;99.90;;;;;;10347110;28;84197;-53
2022/04/06 21:03:40;;;;;;;;;;;9.70;99.90;;;;;;10351852;28;84240;-50
2022/04/06 21:08:41;;;;;;;;;;;9.80;99.90;;;;;;10348804;28;84967;-50
2022/04/06 21:13:45;;;;;;;;;;;9.90;99.90;;;;;;10351530;28;84955;-53
2022/04/06 21:18:46;;;;;;;;;;;10.00;99.90;;;;;;10338519;28;86653;-54
2022/04/06 21:23:47;;;;;;;;;;;10.10;99.90;;;;;;10344466;28;86135;-51
2022/04/06 21:28:47;;;;;;;;;;;10.20;99.90;;;;;;10331218;28;84284;-52
2022/04/06 21:33:48;;;;;;;;;;;10.20;99.90;;;;;;10333717;28;84158;-49
2022/04/06 21:38:48;;;;;;;;;;;10.40;99.90;;;;;;10334490;28;87350;-53
2022/04/06 21:43:49;;;;;;;;;;;10.40;99.90;;;;;;10355305;28;85073;-53
2022/04/06 21:48:49;;;;;;;;;;;10.30;99.90;;;;;;10350422;28;85033;-48
2022/04/06 21:53:50;;;;;;;;;;;10.30;99.90;;;;;;10349295;28;87475;-54
2022/04/06 21:58:50;;;;;;;;;;;10.30;99.90;;;;;;10354720;28;84929;-52
2022/04/06 22:03:51;;;;;;;;;;;10.40;99.90;;;;;;10339671;28;84955;-48
2022/04/06 22:08:52;;;;;;;;;;;10.50;99.90;;;;;;10353346;28;84109;-49
2022/04/06 22:13:52;;;;;;;;;;;10.60;99.90;;;;;;10356518;28;85169;-49
2022/04/06 22:18:53;;;;;;;;;;;10.50;96.60;;;;;;10348234;28;84553;-50
2022/04/06 22:23:53;;;;;;;;;;;10.60;56.10;;;;;;10347338;28;89686;-53
2022/04/06 22:28:54;;;;;;;;;;;10.60;57.70;;;;;;10354569;28;84026;-54
2022/04/06 22:33:55;;;;;;;;;;;10.60;34.90;;;;;;10338383;28;86915;-49
2022/04/06 22:38:55;;;;;;;;;;;10.60;50.30;;;;;;10347722;28;85312;-48
2022/04/06 22:43:58;;;;;;;;;;;10.60;13.70;;;;;;10346799;28;84124;-50
2022/04/06 22:48:59;;;;;;;;;;;10.70;1.00;;;;;;10336063;28;84870;-54
2022/04/06 22:54:00;;;;;;;;;;;10.60;12.50;;;;;;10375146;28;84181;-49
2022/04/06 22:59:02;;;;;;;;;;;10.60;1.00;;;;;;10365642;28;84223;-51
2022/04/06 23:04:02;;;;;;;;;;;10.60;1.00;;;;;;10354824;28;84731;-50
2022/04/06 23:09:03;;;;;;;;;;;10.60;1.00;;;;;;10351483;28;84607;-50
2022/04/06 23:14:04;;;;;;;;;;;10.60;1.00;;;;;;10354294;28;84679;-55
2022/04/06 23:19:05;;;;;;;;;;;10.60;1.00;;;;;;10345153;28;84234;-52
2022/04/06 23:24:05;;;;;;;;;;;10.50;1.00;;;;;;10347074;28;84820;-54
2022/04/06 23:29:07;;;;;;;;;;;10.50;1.00;;;;;;10335667;28;84282;-50
2022/04/06 23:34:07;;;;;;;;;;;10.60;1.00;;;;;;10335606;28;84182;-52
2022/04/06 23:39:08;;;;;;;;;;;10.60;1.00;;;;;;10327197;28;86977;-51
2022/04/06 23:44:09;;;;;;;;;;;10.60;69.40;;;;;;10346470;28;84692;-50
2022/04/06 23:49:10;;;;;;;;;;;10.40;99.90;;;;;;10352503;28;84797;-48
2022/04/06 23:54:11;;;;;;;;;;;10.30;99.90;;;;;;10352080;28;84044;-48
2022/04/06 23:59:12;;;;;;;;;;;10.30;99.90;;;;;;10343675;28;84138;-48
